sensor_id;sensor_type;location;lat;lon;timestamp;P1;durP1;ratioP1;P2;durP2;ratioP2
14118;SDS011;7138;49.246;9.100;2022-10-16T00:00:00;6.93;;;1.20;;
14118;SDS011;7138;49.246;9.100;2022-10-16T00:02:26;2.95;;;1.30;;
14118;SDS011;7138;49.246;9.100;2022-10-16T00:04:52;3.58;;;1.20;;
14118;SDS011;7138;49.246;9.100;2022-10-16T00:07:19;3.20;;;1.10;;
14118;SDS011;7138;49.246;9.100;2022-10-16T00:09:47;5.18;;;1.20;;
14118;SDS011;7138;49.246;9.100;2022-10-16T00:12:13;5.38;;;1.10;;
14118;SDS011;7138;49.246;9.100;2022-10-16T00:14:38;2.85;;;1.25;;
14118;SDS011;7138;49.246;9.100;2022-10-16T00:17:07;7.20;;;1.60;;
14118;SDS011;7138;49.246;9.100;2022-10-16T00:19:33;5.28;;;1.10;;
14118;SDS011;7138;49.246;9.100;2022-10-16T00:21:59;9.88;;;1.60;;
14118;SDS011;7138;49.246;9.100;2022-10-16T00:24:25;4.78;;;1.60;;
14118;SDS011;7138;49.246;9.100;2022-10-16T00:26:52;3.60;;;1.30;;
14118;SDS011;7138;49.246;9.100;2022-10-16T00:29:18;4.32;;;1.35;;
14118;SDS011;7138;49.246;9.100;2022-10-16T00:31:44;5.53;;;1.20;;
14118;SDS011;7138;49.246;9.100;2022-10-16T00:34:10;6.53;;;1.25;;
14118;SDS011;7138;49.246;9.100;2022-10-16T00:36:36;3.90;;;1.27;;
14118;SDS011;7138;49.246;9.100;2022-10-16T00:39:02;5.13;;;1.30;;
14118;SDS011;7138;49.246;9.100;2022-10-16T00:41:29;3.38;;;1.20;;
14118;SDS011;7138;49.246;9.100;2022-10-16T00:43:57;4.30;;;1.25;;
14118;SDS011;7138;49.246;9.100;2022-10-16T00:46:26;4.82;;;1.20;;
14118;SDS011;7138;49.246;9.100;2022-10-16T00:49:00;3.10;;;1.10;;
14118;SDS011;7138;49.246;9.100;2022-10-16T00:51:32;3.97;;;1.27;;
14118;SDS011;7138;49.246;9.100;2022-10-16T00:54:02;4.10;;;1.27;;
14118;SDS011;7138;49.246;9.100;2022-10-16T00:56:34;4.53;;;1.40;;
14118;SDS011;7138;49.246;9.100;2022-10-16T00:59:02;4.05;;;1.38;;
14118;SDS011;7138;49.246;9.100;2022-10-16T01:01:36;2.60;;;1.20;;
14118;SDS011;7138;49.246;9.100;2022-10-16T01:04:02;5.40;;;1.35;;
14118;SDS011;7138;49.246;9.100;2022-10-16T01:06:31;4.80;;;1.33;;
14118;SDS011;7138;49.246;9.100;2022-10-16T01:09:16;4.47;;;1.30;;
14118;SDS011;7138;49.246;9.100;2022-10-16T01:11:50;4.43;;;1.30;;
14118;SDS011;7138;49.246;9.100;2022-10-16T01:14:39;3.20;;;1.30;;
14118;SDS011;7138;49.246;9.100;2022-10-16T01:17:14;5.90;;;1.30;;
14118;SDS011;7138;49.246;9.100;2022-10-16T01:19:51;8.43;;;1.23;;
14118;SDS011;7138;49.246;9.100;2022-10-16T01:22:34;3.83;;;1.08;;
14118;SDS011;7138;49.246;9.100;2022-10-16T01:25:16;4.22;;;1.10;;
14118;SDS011;7138;49.246;9.100;2022-10-16T01:27:57;4.93;;;1.30;;
14118;SDS011;7138;49.246;9.100;2022-10-16T01:30:26;2.47;;;1.00;;
14118;SDS011;7138;49.246;9.100;2022-10-16T01:32:59;3.60;;;1.30;;
14118;SDS011;7138;49.246;9.100;2022-10-16T01:35:34;4.85;;;1.20;;
14118;SDS011;7138;49.246;9.100;2022-10-16T01:38:07;2.78;;;1.10;;
14118;SDS011;7138;49.246;9.100;2022-10-16T01:40:41;3.63;;;1.05;;
14118;SDS011;7138;49.246;9.100;2022-10-16T01:43:17;6.00;;;1.10;;
14118;SDS011;7138;49.246;9.100;2022-10-16T01:45:49;8.43;;;1.33;;
14118;SDS011;7138;49.246;9.100;2022-10-16T01:48:18;5.07;;;1.15;;
14118;SDS011;7138;49.246;9.100;2022-10-16T01:53:19;7.05;;;1.23;;
14118;SDS011;7138;49.246;9.100;2022-10-16T01:55:47;3.15;;;1.20;;
14118;SDS011;7138;49.246;9.100;2022-10-16T01:58:17;4.88;;;1.30;;
14118;SDS011;7138;49.246;9.100;2022-10-16T02:00:44;5.53;;;1.42;;
14118;SDS011;7138;49.246;9.100;2022-10-16T02:03:13;6.68;;;1.40;;
14118;SDS011;7138;49.246;9.100;2022-10-16T02:05:45;3.72;;;0.77;;
14118;SDS011;7138;49.246;9.100;2022-10-16T02:08:16;7.35;;;1.20;;
14118;SDS011;7138;49.246;9.100;2022-10-16T02:10:42;4.82;;;1.20;;
14118;SDS011;7138;49.246;9.100;2022-10-16T02:13:09;2.60;;;1.10;;
14118;SDS011;7138;49.246;9.100;2022-10-16T02:15:43;3.17;;;1.10;;
14118;SDS011;7138;49.246;9.100;2022-10-16T02:18:09;4.63;;;1.08;;
14118;SDS011;7138;49.246;9.100;2022-10-16T02:20:37;7.13;;;1.40;;
14118;SDS011;7138;49.246;9.100;2022-10-16T02:23:15;3.10;;;1.20;;
14118;SDS011;7138;49.246;9.100;2022-10-16T02:25:53;7.03;;;1.30;;
14118;SDS011;7138;49.246;9.100;2022-10-16T02:28:24;3.17;;;1.15;;
14118;SDS011;7138;49.246;9.100;2022-10-16T02:30:58;10.45;;;1.80;;
14118;SDS011;7138;49.246;9.100;2022-10-16T02:33:28;4.15;;;1.10;;
14118;SDS011;7138;49.246;9.100;2022-10-16T02:35:56;4.10;;;1.05;;
14118;SDS011;7138;49.246;9.100;2022-10-16T02:38:23;4.03;;;1.13;;
14118;SDS011;7138;49.246;9.100;2022-10-16T02:40:50;5.20;;;1.40;;
14118;SDS011;7138;49.246;9.100;2022-10-16T02:43:17;4.22;;;1.30;;
14118;SDS011;7138;49.246;9.100;2022-10-16T02:45:44;4.97;;;1.40;;
14118;SDS011;7138;49.246;9.100;2022-10-16T02:48:11;2.95;;;1.02;;
14118;SDS011;7138;49.246;9.100;2022-10-16T02:50:37;3.60;;;1.30;;
14118;SDS011;7138;49.246;9.100;2022-10-16T02:53:03;5.82;;;1.33;;
14118;SDS011;7138;49.246;9.100;2022-10-16T02:55:29;6.20;;;1.10;;
14118;SDS011;7138;49.246;9.100;2022-10-16T02:57:54;4.63;;;1.00;;
14118;SDS011;7138;49.246;9.100;2022-10-16T03:00:20;5.65;;;1.13;;
14118;SDS011;7138;49.246;9.100;2022-10-16T03:02:46;7.43;;;1.67;;
14118;SDS011;7138;49.246;9.100;2022-10-16T03:05:14;4.38;;;1.15;;
14118;SDS011;7138;49.246;9.100;2022-10-16T03:07:40;3.53;;;1.00;;
14118;SDS011;7138;49.246;9.100;2022-10-16T03:10:07;3.55;;;1.27;;
14118;SDS011;7138;49.246;9.100;2022-10-16T03:12:33;4.00;;;1.27;;
14118;SDS011;7138;49.246;9.100;2022-10-16T03:14:59;8.07;;;1.30;;
14118;SDS011;7138;49.246;9.100;2022-10-16T03:17:25;4.57;;;1.30;;
14118;SDS011;7138;49.246;9.100;2022-10-16T03:19:51;3.33;;;1.17;;
14118;SDS011;7138;49.246;9.100;2022-10-16T03:22:18;4.88;;;1.10;;
14118;SDS011;7138;49.246;9.100;2022-10-16T03:24:44;4.63;;;1.10;;
14118;SDS011;7138;49.246;9.100;2022-10-16T03:27:10;4.38;;;1.10;;
14118;SDS011;7138;49.246;9.100;2022-10-16T03:29:36;3.50;;;1.20;;
14118;SDS011;7138;49.246;9.100;2022-10-16T03:32:02;5.78;;;1.35;;
14118;SDS011;7138;49.246;9.100;2022-10-16T03:34:28;4.85;;;1.17;;
14118;SDS011;7138;49.246;9.100;2022-10-16T03:36:54;4.15;;;1.00;;
14118;SDS011;7138;49.246;9.100;2022-10-16T03:39:21;2.83;;;1.00;;
14118;SDS011;7138;49.246;9.100;2022-10-16T03:41:47;5.55;;;1.13;;
14118;SDS011;7138;49.246;9.100;2022-10-16T03:44:13;6.55;;;1.23;;
14118;SDS011;7138;49.246;9.100;2022-10-16T03:46:39;3.40;;;1.10;;
14118;SDS011;7138;49.246;9.100;2022-10-16T03:49:06;3.83;;;1.25;;
14118;SDS011;7138;49.246;9.100;2022-10-16T03:51:31;2.08;;;0.90;;
14118;SDS011;7138;49.246;9.100;2022-10-16T03:53:57;14.25;;;1.75;;
14118;SDS011;7138;49.246;9.100;2022-10-16T03:56:25;5.93;;;1.10;;
14118;SDS011;7138;49.246;9.100;2022-10-16T03:58:51;3.60;;;1.33;;
14118;SDS011;7138;49.246;9.100;2022-10-16T04:01:17;7.75;;;1.25;;
14118;SDS011;7138;49.246;9.100;2022-10-16T04:03:42;3.90;;;1.02;;
14118;SDS011;7138;49.246;9.100;2022-10-16T04:06:08;2.58;;;1.00;;
14118;SDS011;7138;49.246;9.100;2022-10-16T04:08:34;8.18;;;1.33;;
14118;SDS011;7138;49.246;9.100;2022-10-16T04:11:01;4.78;;;1.20;;
14118;SDS011;7138;49.246;9.100;2022-10-16T04:13:29;4.25;;;1.10;;
14118;SDS011;7138;49.246;9.100;2022-10-16T04:15:55;3.33;;;1.20;;
14118;SDS011;7138;49.246;9.100;2022-10-16T04:18:21;4.60;;;1.25;;
14118;SDS011;7138;49.246;9.100;2022-10-16T04:20:48;3.10;;;1.40;;
14118;SDS011;7138;49.246;9.100;2022-10-16T04:23:14;3.33;;;1.10;;
14118;SDS011;7138;49.246;9.100;2022-10-16T04:25:40;5.57;;;1.55;;
14118;SDS011;7138;49.246;9.100;2022-10-16T04:28:05;5.15;;;1.40;;
14118;SDS011;7138;49.246;9.100;2022-10-16T04:30:33;8.77;;;2.03;;
14118;SDS011;7138;49.246;9.100;2022-10-16T04:32:59;4.72;;;1.50;;
14118;SDS011;7138;49.246;9.100;2022-10-16T04:35:24;6.70;;;1.20;;
14118;SDS011;7138;49.246;9.100;2022-10-16T04:37:50;4.32;;;1.30;;
14118;SDS011;7138;49.246;9.100;2022-10-16T04:40:16;4.97;;;1.63;;
14118;SDS011;7138;49.246;9.100;2022-10-16T04:42:42;3.97;;;1.45;;
14118;SDS011;7138;49.246;9.100;2022-10-16T04:45:08;4.20;;;1.40;;
14118;SDS011;7138;49.246;9.100;2022-10-16T04:47:36;3.80;;;1.13;;
14118;SDS011;7138;49.246;9.100;2022-10-16T04:50:02;4.40;;;1.50;;
14118;SDS011;7138;49.246;9.100;2022-10-16T04:52:29;4.47;;;1.30;;
14118;SDS011;7138;49.246;9.100;2022-10-16T04:54:56;4.03;;;1.20;;
14118;SDS011;7138;49.246;9.100;2022-10-16T04:57:25;6.40;;;1.40;;
14118;SDS011;7138;49.246;9.100;2022-10-16T04:59:51;5.55;;;1.27;;
14118;SDS011;7138;49.246;9.100;2022-10-16T05:02:17;3.50;;;1.30;;
14118;SDS011;7138;49.246;9.100;2022-10-16T05:04:45;6.10;;;1.58;;
14118;SDS011;7138;49.246;9.100;2022-10-16T05:07:10;3.88;;;1.40;;
14118;SDS011;7138;49.246;9.100;2022-10-16T05:09:36;4.10;;;1.35;;
14118;SDS011;7138;49.246;9.100;2022-10-16T05:12:02;5.82;;;1.30;;
14118;SDS011;7138;49.246;9.100;2022-10-16T05:14:29;3.13;;;1.23;;
14118;SDS011;7138;49.246;9.100;2022-10-16T05:16:55;4.22;;;1.33;;
14118;SDS011;7138;49.246;9.100;2022-10-16T05:19:21;4.15;;;1.60;;
14118;SDS011;7138;49.246;9.100;2022-10-16T05:21:48;4.65;;;1.67;;
14118;SDS011;7138;49.246;9.100;2022-10-16T05:24:14;5.57;;;1.45;;
14118;SDS011;7138;49.246;9.100;2022-10-16T05:26:39;5.95;;;1.65;;
14118;SDS011;7138;49.246;9.100;2022-10-16T05:29:05;4.13;;;1.30;;
14118;SDS011;7138;49.246;9.100;2022-10-16T05:31:31;5.78;;;1.70;;
14118;SDS011;7138;49.246;9.100;2022-10-16T05:33:58;7.50;;;1.73;;
14118;SDS011;7138;49.246;9.100;2022-10-16T05:36:24;4.20;;;1.40;;
14118;SDS011;7138;49.246;9.100;2022-10-16T05:38:52;3.60;;;1.60;;
14118;SDS011;7138;49.246;9.100;2022-10-16T05:41:18;5.25;;;1.45;;
14118;SDS011;7138;49.246;9.100;2022-10-16T05:43:46;3.80;;;1.35;;
14118;SDS011;7138;49.246;9.100;2022-10-16T05:46:13;5.93;;;1.80;;
14118;SDS011;7138;49.246;9.100;2022-10-16T05:48:39;5.45;;;1.88;;
14118;SDS011;7138;49.246;9.100;2022-10-16T05:51:06;6.70;;;1.80;;
14118;SDS011;7138;49.246;9.100;2022-10-16T05:53:36;4.30;;;1.58;;
14118;SDS011;7138;49.246;9.100;2022-10-16T05:56:05;4.18;;;1.83;;
14118;SDS011;7138;49.246;9.100;2022-10-16T05:58:34;4.53;;;1.42;;
14118;SDS011;7138;49.246;9.100;2022-10-16T06:01:03;5.18;;;1.45;;
14118;SDS011;7138;49.246;9.100;2022-10-16T06:03:32;4.88;;;2.03;;
14118;SDS011;7138;49.246;9.100;2022-10-16T06:05:58;4.13;;;1.35;;
14118;SDS011;7138;49.246;9.100;2022-10-16T06:08:24;5.50;;;1.35;;
14118;SDS011;7138;49.246;9.100;2022-10-16T06:10:59;5.00;;;1.65;;
14118;SDS011;7138;49.246;9.100;2022-10-16T06:13:28;6.63;;;1.60;;
14118;SDS011;7138;49.246;9.100;2022-10-16T06:15:56;3.05;;;1.60;;
14118;SDS011;7138;49.246;9.100;2022-10-16T06:18:23;6.28;;;1.80;;
14118;SDS011;7138;49.246;9.100;2022-10-16T06:20:49;3.25;;;1.67;;
14118;SDS011;7138;49.246;9.100;2022-10-16T06:23:15;4.32;;;1.60;;
14118;SDS011;7138;49.246;9.100;2022-10-16T06:25:40;9.85;;;1.80;;
14118;SDS011;7138;49.246;9.100;2022-10-16T06:28:06;5.47;;;2.35;;
14118;SDS011;7138;49.246;9.100;2022-10-16T06:30:34;4.72;;;1.45;;
14118;SDS011;7138;49.246;9.100;2022-10-16T06:32:59;5.13;;;1.60;;
14118;SDS011;7138;49.246;9.100;2022-10-16T06:35:25;4.30;;;1.65;;
14118;SDS011;7138;49.246;9.100;2022-10-16T06:37:52;6.97;;;1.50;;
14118;SDS011;7138;49.246;9.100;2022-10-16T06:40:18;3.83;;;1.60;;
14118;SDS011;7138;49.246;9.100;2022-10-16T06:42:44;2.88;;;1.38;;
14118;SDS011;7138;49.246;9.100;2022-10-16T06:45:10;5.55;;;1.83;;
14118;SDS011;7138;49.246;9.100;2022-10-16T06:47:37;8.07;;;2.20;;
14118;SDS011;7138;49.246;9.100;2022-10-16T06:50:03;4.43;;;1.90;;
14118;SDS011;7138;49.246;9.100;2022-10-16T06:52:32;4.80;;;1.67;;
14118;SDS011;7138;49.246;9.100;2022-10-16T06:54:58;5.90;;;1.60;;
14118;SDS011;7138;49.246;9.100;2022-10-16T06:57:24;7.07;;;2.08;;
14118;SDS011;7138;49.246;9.100;2022-10-16T06:59:50;3.47;;;1.40;;
14118;SDS011;7138;49.246;9.100;2022-10-16T07:02:16;5.30;;;1.75;;
14118;SDS011;7138;49.246;9.100;2022-10-16T07:04:43;6.30;;;1.80;;
14118;SDS011;7138;49.246;9.100;2022-10-16T07:07:09;5.15;;;1.80;;
14118;SDS011;7138;49.246;9.100;2022-10-16T07:09:35;3.47;;;1.55;;
14118;SDS011;7138;49.246;9.100;2022-10-16T07:12:01;4.47;;;2.05;;
14118;SDS011;7138;49.246;9.100;2022-10-16T07:14:27;4.30;;;2.15;;
14118;SDS011;7138;49.246;9.100;2022-10-16T07:16:53;3.85;;;1.98;;
14118;SDS011;7138;49.246;9.100;2022-10-16T07:19:19;5.03;;;1.55;;
14118;SDS011;7138;49.246;9.100;2022-10-16T07:21:46;3.58;;;1.67;;
14118;SDS011;7138;49.246;9.100;2022-10-16T07:24:13;6.65;;;1.60;;
14118;SDS011;7138;49.246;9.100;2022-10-16T07:26:41;3.03;;;1.40;;
14118;SDS011;7138;49.246;9.100;2022-10-16T07:29:11;4.72;;;1.30;;
14118;SDS011;7138;49.246;9.100;2022-10-16T07:31:39;4.72;;;1.38;;
14118;SDS011;7138;49.246;9.100;2022-10-16T07:34:05;6.45;;;1.40;;
14118;SDS011;7138;49.246;9.100;2022-10-16T07:36:31;7.95;;;1.52;;
14118;SDS011;7138;49.246;9.100;2022-10-16T07:38:58;3.72;;;1.10;;
14118;SDS011;7138;49.246;9.100;2022-10-16T07:41:24;6.88;;;1.20;;
14118;SDS011;7138;49.246;9.100;2022-10-16T07:43:50;3.08;;;1.27;;
14118;SDS011;7138;49.246;9.100;2022-10-16T07:46:18;4.93;;;1.10;;
14118;SDS011;7138;49.246;9.100;2022-10-16T07:48:46;3.13;;;1.38;;
14118;SDS011;7138;49.246;9.100;2022-10-16T07:51:13;5.65;;;1.30;;
14118;SDS011;7138;49.246;9.100;2022-10-16T07:53:41;8.80;;;1.27;;
14118;SDS011;7138;49.246;9.100;2022-10-16T07:56:09;4.20;;;1.30;;
14118;SDS011;7138;49.246;9.100;2022-10-16T07:58:35;3.78;;;1.25;;
14118;SDS011;7138;49.246;9.100;2022-10-16T08:01:03;5.30;;;1.40;;
14118;SDS011;7138;49.246;9.100;2022-10-16T08:03:30;6.32;;;1.20;;
14118;SDS011;7138;49.246;9.100;2022-10-16T08:05:56;5.93;;;1.30;;
14118;SDS011;7138;49.246;9.100;2022-10-16T08:08:23;5.15;;;1.30;;
14118;SDS011;7138;49.246;9.100;2022-10-16T08:10:49;4.50;;;1.02;;
14118;SDS011;7138;49.246;9.100;2022-10-16T08:13:16;5.68;;;1.42;;
14118;SDS011;7138;49.246;9.100;2022-10-16T08:15:42;3.20;;;1.13;;
14118;SDS011;7138;49.246;9.100;2022-10-16T08:18:09;4.00;;;1.27;;
14118;SDS011;7138;49.246;9.100;2022-10-16T08:20:37;3.20;;;1.33;;
14118;SDS011;7138;49.246;9.100;2022-10-16T08:23:06;2.67;;;0.93;;
14118;SDS011;7138;49.246;9.100;2022-10-16T08:25:34;3.60;;;1.52;;
14118;SDS011;7138;49.246;9.100;2022-10-16T08:28:02;7.05;;;1.65;;
14118;SDS011;7138;49.246;9.100;2022-10-16T08:30:31;4.05;;;1.40;;
14118;SDS011;7138;49.246;9.100;2022-10-16T08:32:57;6.72;;;1.48;;
14118;SDS011;7138;49.246;9.100;2022-10-16T08:35:23;3.47;;;1.20;;
14118;SDS011;7138;49.246;9.100;2022-10-16T08:37:49;7.55;;;1.30;;
14118;SDS011;7138;49.246;9.100;2022-10-16T08:40:16;3.03;;;1.20;;
14118;SDS011;7138;49.246;9.100;2022-10-16T08:42:55;6.90;;;1.40;;
14118;SDS011;7138;49.246;9.100;2022-10-16T08:45:58;3.85;;;1.42;;
14118;SDS011;7138;49.246;9.100;2022-10-16T08:48:45;3.63;;;1.63;;
14118;SDS011;7138;49.246;9.100;2022-10-16T08:51:18;2.45;;;1.02;;
14118;SDS011;7138;49.246;9.100;2022-10-16T08:53:49;6.88;;;1.40;;
14118;SDS011;7138;49.246;9.100;2022-10-16T08:56:20;2.85;;;1.30;;
14118;SDS011;7138;49.246;9.100;2022-10-16T08:58:46;3.30;;;1.20;;
14118;SDS011;7138;49.246;9.100;2022-10-16T09:01:16;5.03;;;1.30;;
14118;SDS011;7138;49.246;9.100;2022-10-16T09:03:53;5.78;;;1.30;;
14118;SDS011;7138;49.246;9.100;2022-10-16T09:06:56;6.78;;;1.13;;
14118;SDS011;7138;49.246;9.100;2022-10-16T09:09:36;7.30;;;1.67;;
14118;SDS011;7138;49.246;9.100;2022-10-16T09:12:23;5.45;;;1.10;;
14118;SDS011;7138;49.246;9.100;2022-10-16T09:15:01;5.80;;;1.33;;
14118;SDS011;7138;49.246;9.100;2022-10-16T09:17:41;4.78;;;1.40;;
14118;SDS011;7138;49.246;9.100;2022-10-16T09:20:19;5.80;;;0.98;;
14118;SDS011;7138;49.246;9.100;2022-10-16T09:22:59;4.38;;;1.10;;
14118;SDS011;7138;49.246;9.100;2022-10-16T09:25:41;4.15;;;1.17;;
14118;SDS011;7138;49.246;9.100;2022-10-16T09:28:10;5.55;;;1.20;;
14118;SDS011;7138;49.246;9.100;2022-10-16T09:30:36;5.05;;;1.05;;
14118;SDS011;7138;49.246;9.100;2022-10-16T09:33:05;3.60;;;1.10;;
14118;SDS011;7138;49.246;9.100;2022-10-16T09:35:35;5.30;;;1.30;;
14118;SDS011;7138;49.246;9.100;2022-10-16T09:38:04;3.70;;;1.17;;
14118;SDS011;7138;49.246;9.100;2022-10-16T09:40:32;3.80;;;1.30;;
14118;SDS011;7138;49.246;9.100;2022-10-16T09:43:03;3.58;;;1.00;;
14118;SDS011;7138;49.246;9.100;2022-10-16T09:45:53;2.92;;;1.10;;
14118;SDS011;7138;49.246;9.100;2022-10-16T09:48:23;4.13;;;1.30;;
14118;SDS011;7138;49.246;9.100;2022-10-16T09:50:56;4.70;;;1.25;;
14118;SDS011;7138;49.246;9.100;2022-10-16T09:53:25;6.30;;;1.00;;
14118;SDS011;7138;49.246;9.100;2022-10-16T09:56:04;4.55;;;1.20;;
14118;SDS011;7138;49.246;9.100;2022-10-16T09:58:31;6.05;;;1.13;;
14118;SDS011;7138;49.246;9.100;2022-10-16T10:00:58;6.93;;;1.13;;
14118;SDS011;7138;49.246;9.100;2022-10-16T10:03:33;4.13;;;1.20;;
14118;SDS011;7138;49.246;9.100;2022-10-16T10:06:05;3.53;;;1.17;;
14118;SDS011;7138;49.246;9.100;2022-10-16T10:08:54;4.85;;;1.10;;
14118;SDS011;7138;49.246;9.100;2022-10-16T10:11:39;3.45;;;1.40;;
14118;SDS011;7138;49.246;9.100;2022-10-16T10:14:14;4.55;;;1.42;;
14118;SDS011;7138;49.246;9.100;2022-10-16T10:16:48;4.35;;;1.00;;
14118;SDS011;7138;49.246;9.100;2022-10-16T10:19:17;5.65;;;0.82;;
14118;SDS011;7138;49.246;9.100;2022-10-16T10:21:45;6.38;;;1.20;;
14118;SDS011;7138;49.246;9.100;2022-10-16T10:24:13;5.05;;;1.40;;
14118;SDS011;7138;49.246;9.100;2022-10-16T10:26:42;3.38;;;0.80;;
14118;SDS011;7138;49.246;9.100;2022-10-16T10:29:25;3.35;;;0.93;;
14118;SDS011;7138;49.246;9.100;2022-10-16T10:32:13;4.97;;;0.93;;
14118;SDS011;7138;49.246;9.100;2022-10-16T10:34:58;3.97;;;0.88;;
14118;SDS011;7138;49.246;9.100;2022-10-16T10:37:49;2.42;;;0.70;;
14118;SDS011;7138;49.246;9.100;2022-10-16T10:40:34;4.55;;;0.90;;
14118;SDS011;7138;49.246;9.100;2022-10-16T10:43:17;3.83;;;0.90;;
14118;SDS011;7138;49.246;9.100;2022-10-16T10:46:04;4.22;;;0.80;;
14118;SDS011;7138;49.246;9.100;2022-10-16T10:48:43;3.70;;;1.10;;
14118;SDS011;7138;49.246;9.100;2022-10-16T10:51:38;6.30;;;1.05;;
14118;SDS011;7138;49.246;9.100;2022-10-16T10:54:16;4.18;;;0.90;;
14118;SDS011;7138;49.246;9.100;2022-10-16T10:56:51;4.28;;;0.88;;
14118;SDS011;7138;49.246;9.100;2022-10-16T10:59:29;3.38;;;0.95;;
14118;SDS011;7138;49.246;9.100;2022-10-16T11:02:16;4.30;;;0.80;;
14118;SDS011;7138;49.246;9.100;2022-10-16T11:04:58;2.60;;;1.00;;
14118;SDS011;7138;49.246;9.100;2022-10-16T11:07:59;3.85;;;0.93;;
14118;SDS011;7138;49.246;9.100;2022-10-16T11:10:33;6.25;;;1.02;;
14118;SDS011;7138;49.246;9.100;2022-10-16T11:13:15;3.45;;;1.02;;
14118;SDS011;7138;49.246;9.100;2022-10-16T11:15:51;3.55;;;0.90;;
14118;SDS011;7138;49.246;9.100;2022-10-16T11:18:24;3.22;;;0.90;;
14118;SDS011;7138;49.246;9.100;2022-10-16T11:20:59;3.75;;;0.90;;
14118;SDS011;7138;49.246;9.100;2022-10-16T11:23:33;4.75;;;1.10;;
14118;SDS011;7138;49.246;9.100;2022-10-16T11:26:09;3.35;;;0.93;;
14118;SDS011;7138;49.246;9.100;2022-10-16T11:28:42;9.13;;;0.95;;
14118;SDS011;7138;49.246;9.100;2022-10-16T11:31:14;3.05;;;0.95;;
14118;SDS011;7138;49.246;9.100;2022-10-16T11:33:51;3.08;;;0.80;;
14118;SDS011;7138;49.246;9.100;2022-10-16T11:36:31;3.10;;;0.85;;
14118;SDS011;7138;49.246;9.100;2022-10-16T11:39:07;3.10;;;0.70;;
14118;SDS011;7138;49.246;9.100;2022-10-16T11:41:47;4.68;;;1.00;;
14118;SDS011;7138;49.246;9.100;2022-10-16T11:44:19;5.55;;;1.10;;
14118;SDS011;7138;49.246;9.100;2022-10-16T11:47:12;3.60;;;0.80;;
14118;SDS011;7138;49.246;9.100;2022-10-16T11:50:01;3.88;;;1.00;;
14118;SDS011;7138;49.246;9.100;2022-10-16T11:52:39;3.88;;;0.70;;
14118;SDS011;7138;49.246;9.100;2022-10-16T11:55:15;3.35;;;0.80;;
14118;SDS011;7138;49.246;9.100;2022-10-16T11:57:48;2.78;;;0.77;;
14118;SDS011;7138;49.246;9.100;2022-10-16T12:00:21;4.00;;;0.85;;
14118;SDS011;7138;49.246;9.100;2022-10-16T12:02:54;4.68;;;0.70;;
14118;SDS011;7138;49.246;9.100;2022-10-16T12:05:35;4.35;;;0.90;;
14118;SDS011;7138;49.246;9.100;2022-10-16T12:08:20;2.42;;;0.60;;
14118;SDS011;7138;49.246;9.100;2022-10-16T12:10:48;2.35;;;0.77;;
14118;SDS011;7138;49.246;9.100;2022-10-16T12:13:27;2.78;;;1.05;;
14118;SDS011;7138;49.246;9.100;2022-10-16T12:16:06;3.53;;;0.80;;
14118;SDS011;7138;49.246;9.100;2022-10-16T12:18:45;4.72;;;1.00;;
14118;SDS011;7138;49.246;9.100;2022-10-16T12:21:13;5.97;;;0.90;;
14118;SDS011;7138;49.246;9.100;2022-10-16T12:23:46;2.55;;;0.88;;
14118;SDS011;7138;49.246;9.100;2022-10-16T12:26:24;3.13;;;0.80;;
14118;SDS011;7138;49.246;9.100;2022-10-16T12:28:51;1.95;;;0.57;;
14118;SDS011;7138;49.246;9.100;2022-10-16T12:31:18;2.67;;;0.70;;
14118;SDS011;7138;49.246;9.100;2022-10-16T12:33:51;4.95;;;0.90;;
14118;SDS011;7138;49.246;9.100;2022-10-16T12:36:27;4.65;;;0.75;;
14118;SDS011;7138;49.246;9.100;2022-10-16T12:38:55;6.05;;;1.00;;
14118;SDS011;7138;49.246;9.100;2022-10-16T12:41:27;3.22;;;0.80;;
14118;SDS011;7138;49.246;9.100;2022-10-16T12:43:55;3.72;;;0.90;;
14118;SDS011;7138;49.246;9.100;2022-10-16T12:46:36;4.13;;;1.05;;
14118;SDS011;7138;49.246;9.100;2022-10-16T12:49:06;4.80;;;0.68;;
14118;SDS011;7138;49.246;9.100;2022-10-16T12:51:49;3.28;;;0.70;;
14118;SDS011;7138;49.246;9.100;2022-10-16T12:54:15;2.80;;;0.77;;
14118;SDS011;7138;49.246;9.100;2022-10-16T12:56:51;4.43;;;0.90;;
14118;SDS011;7138;49.246;9.100;2022-10-16T12:59:37;2.53;;;0.90;;
14118;SDS011;7138;49.246;9.100;2022-10-16T13:05:23;4.32;;;0.68;;
14118;SDS011;7138;49.246;9.100;2022-10-16T13:08:11;5.18;;;1.23;;
14118;SDS011;7138;49.246;9.100;2022-10-16T13:10:57;2.53;;;0.80;;
14118;SDS011;7138;49.246;9.100;2022-10-16T13:13:37;5.43;;;0.93;;
14118;SDS011;7138;49.246;9.100;2022-10-16T13:16:24;6.10;;;1.00;;
14118;SDS011;7138;49.246;9.100;2022-10-16T13:19:08;3.08;;;0.70;;
14118;SDS011;7138;49.246;9.100;2022-10-16T13:21:51;3.30;;;0.88;;
14118;SDS011;7138;49.246;9.100;2022-10-16T13:24:31;3.17;;;0.85;;
14118;SDS011;7138;49.246;9.100;2022-10-16T13:27:18;2.15;;;0.80;;
14118;SDS011;7138;49.246;9.100;2022-10-16T13:30:01;2.83;;;1.00;;
14118;SDS011;7138;49.246;9.100;2022-10-16T13:32:39;2.03;;;0.70;;
14118;SDS011;7138;49.246;9.100;2022-10-16T13:35:18;1.80;;;0.80;;
14118;SDS011;7138;49.246;9.100;2022-10-16T13:37:47;2.38;;;0.85;;
14118;SDS011;7138;49.246;9.100;2022-10-16T13:40:18;2.40;;;0.80;;
14118;SDS011;7138;49.246;9.100;2022-10-16T13:42:46;5.07;;;0.90;;
14118;SDS011;7138;49.246;9.100;2022-10-16T13:45:20;4.57;;;1.02;;
14118;SDS011;7138;49.246;9.100;2022-10-16T13:47:50;5.40;;;1.00;;
14118;SDS011;7138;49.246;9.100;2022-10-16T13:50:26;3.95;;;1.00;;
14118;SDS011;7138;49.246;9.100;2022-10-16T13:52:53;3.30;;;1.25;;
14118;SDS011;7138;49.246;9.100;2022-10-16T13:55:29;5.22;;;1.30;;
14118;SDS011;7138;49.246;9.100;2022-10-16T13:58:04;5.72;;;1.00;;
14118;SDS011;7138;49.246;9.100;2022-10-16T14:00:33;7.22;;;1.00;;
14118;SDS011;7138;49.246;9.100;2022-10-16T14:03:00;6.25;;;1.20;;
14118;SDS011;7138;49.246;9.100;2022-10-16T14:05:29;5.55;;;1.10;;
14118;SDS011;7138;49.246;9.100;2022-10-16T14:07:55;3.35;;;0.80;;
14118;SDS011;7138;49.246;9.100;2022-10-16T14:10:23;4.30;;;1.05;;
14118;SDS011;7138;49.246;9.100;2022-10-16T14:12:55;3.70;;;1.08;;
14118;SDS011;7138;49.246;9.100;2022-10-16T14:15:24;6.13;;;1.15;;
14118;SDS011;7138;49.246;9.100;2022-10-16T14:17:52;4.05;;;1.20;;
14118;SDS011;7138;49.246;9.100;2022-10-16T14:20:21;3.65;;;0.90;;
14118;SDS011;7138;49.246;9.100;2022-10-16T14:22:58;3.40;;;1.00;;
14118;SDS011;7138;49.246;9.100;2022-10-16T14:25:27;3.47;;;1.60;;
14118;SDS011;7138;49.246;9.100;2022-10-16T14:27:56;4.30;;;1.17;;
14118;SDS011;7138;49.246;9.100;2022-10-16T14:30:25;3.35;;;1.17;;
14118;SDS011;7138;49.246;9.100;2022-10-16T14:32:54;4.32;;;1.10;;
14118;SDS011;7138;49.246;9.100;2022-10-16T14:35:24;4.28;;;1.30;;
14118;SDS011;7138;49.246;9.100;2022-10-16T14:37:53;3.78;;;1.20;;
14118;SDS011;7138;49.246;9.100;2022-10-16T14:40:22;5.38;;;1.23;;
14118;SDS011;7138;49.246;9.100;2022-10-16T14:42:50;8.95;;;1.20;;
14118;SDS011;7138;49.246;9.100;2022-10-16T14:45:18;5.72;;;1.30;;
14118;SDS011;7138;49.246;9.100;2022-10-16T14:47:48;5.25;;;1.17;;
14118;SDS011;7138;49.246;9.100;2022-10-16T14:50:18;5.68;;;1.08;;
14118;SDS011;7138;49.246;9.100;2022-10-16T14:52:45;4.65;;;1.00;;
14118;SDS011;7138;49.246;9.100;2022-10-16T14:55:11;5.68;;;1.10;;
14118;SDS011;7138;49.246;9.100;2022-10-16T14:57:37;4.10;;;1.00;;
14118;SDS011;7138;49.246;9.100;2022-10-16T15:00:08;3.90;;;1.25;;
14118;SDS011;7138;49.246;9.100;2022-10-16T15:02:43;4.28;;;1.13;;
14118;SDS011;7138;49.246;9.100;2022-10-16T15:05:14;4.35;;;1.10;;
14118;SDS011;7138;49.246;9.100;2022-10-16T15:07:44;4.22;;;1.35;;
14118;SDS011;7138;49.246;9.100;2022-10-16T15:10:11;3.28;;;1.25;;
14118;SDS011;7138;49.246;9.100;2022-10-16T15:12:37;3.65;;;1.10;;
14118;SDS011;7138;49.246;9.100;2022-10-16T15:15:23;4.68;;;0.98;;
14118;SDS011;7138;49.246;9.100;2022-10-16T15:17:57;7.60;;;1.10;;
14118;SDS011;7138;49.246;9.100;2022-10-16T15:20:26;4.68;;;1.50;;
14118;SDS011;7138;49.246;9.100;2022-10-16T15:22:54;4.38;;;1.17;;
14118;SDS011;7138;49.246;9.100;2022-10-16T15:25:32;6.50;;;1.38;;
14118;SDS011;7138;49.246;9.100;2022-10-16T15:28:02;4.43;;;1.30;;